Time;durP1;ratioP1;P1;durP2;ratioP2;P2;SDS_P1;SDS_P2;PMS_P1;PMS_P2;Temp;Humidity;BMP_temperature;BMP_pressure;BME280_temperature;BME280_humidity;BME280_pressure;Samples;Min_cycle;Max_cycle;Signal;HPM_P1;HPM_P2
2021/01/24 00:01:11;;;;;;;4.27;3.97;;;3.80;99.90;;;;;;5067060;28;20664;-92
2021/01/24 00:03:38;;;;;;;4.60;4.07;;;3.70;99.90;;;;;;5069333;28;20652;-92
2021/01/24 00:06:04;;;;;;;3.90;3.43;;;3.70;99.90;;;;;;5063865;28;20636;-91
2021/01/24 00:08:31;;;;;;;3.60;3.30;;;3.70;99.90;;;;;;5065053;28;20613;-92
2021/01/24 00:10:57;;;;;;;3.63;3.33;;;3.60;99.90;;;;;;5069605;28;20710;-91
2021/01/24 00:13:25;;;;;;;3.50;3.13;;;3.60;99.90;;;;;;5054243;28;20728;-92
2021/01/24 00:15:51;;;;;;;4.03;3.63;;;3.60;99.90;;;;;;5064949;28;20616;-91
2021/01/24 00:18:17;;;;;;;3.57;3.27;;;3.60;99.90;;;;;;5061469;28;20648;-91
2021/01/24 00:20:44;;;;;;;3.53;3.23;;;3.60;99.90;;;;;;5062466;28;20814;-91
2021/01/24 00:23:10;;;;;;;7.40;4.20;;;3.60;99.90;;;;;;5065069;28;20609;-91
2021/01/24 00:25:37;;;;;;;3.10;2.90;;;3.50;99.90;;;;;;5061821;28;20723;-88
2021/01/24 00:28:03;;;;;;;2.90;2.70;;;3.50;99.90;;;;;;5061560;28;20641;-90
2021/01/24 00:30:31;;;;;;;2.57;2.37;;;3.50;99.90;;;;;;5059896;28;20666;-92
2021/01/24 00:32:57;;;;;;;3.20;2.90;;;3.50;99.90;;;;;;5064269;28;21211;-91
2021/01/24 00:35:25;;;;;;;2.30;2.10;;;3.40;99.90;;;;;;5063044;28;20633;-90
2021/01/24 00:37:52;;;;;;;2.50;2.30;;;3.30;99.90;;;;;;5060770;28;20989;-89
2021/01/24 00:40:18;;;;;;;2.70;2.50;;;3.30;99.90;;;;;;5064788;28;21611;-90
2021/01/24 00:42:45;;;;;;;2.60;2.40;;;3.40;99.90;;;;;;5068259;28;21006;-90
2021/01/24 00:45:12;;;;;;;2.50;2.30;;;3.20;99.90;;;;;;5070346;28;20637;-90
2021/01/24 00:47:39;;;;;;;2.43;2.23;;;3.30;99.90;;;;;;5065351;28;20665;-90
2021/01/24 00:50:07;;;;;;;3.83;2.23;;;3.10;99.90;;;;;;5070316;28;20672;-91
2021/01/24 00:52:35;;;;;;;3.03;2.70;;;3.00;99.90;;;;;;5068414;28;20625;-90
2021/01/24 00:55:01;;;;;;;2.70;2.50;;;3.10;99.90;;;;;;5073444;28;20829;-90
2021/01/24 00:57:28;;;;;;;3.10;2.80;;;3.00;99.90;;;;;;5073689;28;20639;-92
2021/01/24 00:59:54;;;;;;;2.90;2.70;;;3.10;99.90;;;;;;5068906;28;20665;-90
2021/01/24 01:02:20;;;;;;;3.83;3.53;;;3.10;99.90;;;;;;5066146;28;20771;-89
2021/01/24 01:04:48;;;;;;;2.93;2.73;;;3.20;99.90;;;;;;5067730;28;20636;-90
2021/01/24 01:07:14;;;;;;;3.47;3.20;;;3.10;99.90;;;;;;5066259;28;20641;-90
2021/01/24 01:09:40;;;;;;;4.07;3.50;;;3.10;99.90;;;;;;5069137;28;20675;-90
2021/01/24 01:12:07;;;;;;;3.97;3.70;;;3.00;99.90;;;;;;5060135;28;20644;-90
2021/01/24 01:14:33;;;;;;;3.67;3.47;;;3.00;99.90;;;;;;5060926;28;20685;-89
2021/01/24 01:17:04;;;;;;;4.67;4.27;;;3.00;99.90;;;;;;5068551;28;20721;-90
2021/01/24 01:19:30;;;;;;;3.80;3.60;;;3.00;99.90;;;;;;5068764;28;21268;-89
2021/01/24 01:21:57;;;;;;;4.03;3.73;;;3.00;99.90;;;;;;5080810;28;20626;-89
2021/01/24 01:24:24;;;;;;;3.60;3.40;;;3.00;99.90;;;;;;5085602;28;20632;-91
2021/01/24 01:26:50;;;;;;;3.90;3.60;;;3.00;99.90;;;;;;5075349;28;20678;-90
2021/01/24 01:29:17;;;;;;;4.13;3.83;;;3.10;99.90;;;;;;5070401;28;20627;-92
2021/01/24 01:31:43;;;;;;;3.30;3.10;;;3.10;99.90;;;;;;5068747;28;20656;-93
2021/01/24 01:34:12;;;;;;;3.90;3.70;;;3.00;99.90;;;;;;5072182;28;20728;-91
2021/01/24 01:36:38;;;;;;;3.70;3.40;;;3.10;99.90;;;;;;5072785;28;20632;-92
2021/01/24 01:39:05;;;;;;;3.50;3.30;;;3.20;99.90;;;;;;5078800;28;20632;-89
2021/01/24 01:41:34;;;;;;;3.03;2.83;;;3.10;99.90;;;;;;5065944;28;21010;-91
2021/01/24 01:44:03;;;;;;;3.50;3.20;;;3.10;99.90;;;;;;5060910;28;21002;-92
2021/01/24 01:46:29;;;;;;;3.73;3.43;;;3.10;99.90;;;;;;5069535;28;20624;-91
2021/01/24 01:48:56;;;;;;;2.57;2.43;;;3.20;99.90;;;;;;5075728;28;20608;-91
2021/01/24 01:51:23;;;;;;;4.03;3.57;;;3.10;99.90;;;;;;5062390;28;20685;-89
2021/01/24 01:53:50;;;;;;;3.93;3.63;;;3.10;99.90;;;;;;5065785;28;20640;-90
2021/01/24 01:56:18;;;;;;;3.30;3.03;;;3.20;99.90;;;;;;5068142;28;21175;-90
2021/01/24 01:58:45;;;;;;;2.87;2.67;;;3.10;99.90;;;;;;5067605;28;21115;-89
2021/01/24 02:01:19;;;;;;;3.00;2.70;;;3.20;99.90;;;;;;5066055;28;21222;-89
2021/01/24 02:03:54;;;;;;;3.03;2.70;;;3.30;99.90;;;;;;5076322;28;20961;-89
2021/01/24 02:06:32;;;;;;;2.27;2.17;;;3.30;99.90;;;;;;5067935;28;20628;-88
2021/01/24 02:09:03;;;;;;;2.07;1.97;;;3.30;99.90;;;;;;5072729;28;20982;-89
2021/01/24 02:11:39;;;;;;;1.77;1.63;;;3.50;99.90;;;;;;5070375;28;21068;-89
2021/01/24 02:14:15;;;;;;;1.70;1.60;;;3.50;99.90;;;;;;5068276;28;20640;-89
2021/01/24 02:16:45;;;;;;;1.40;1.30;;;3.60;99.90;;;;;;5065519;28;20645;-89
2021/01/24 02:19:21;;;;;;;1.50;1.40;;;3.60;99.90;;;;;;5064863;28;20616;-89
2021/01/24 02:21:47;;;;;;;1.20;1.10;;;4.20;99.90;;;;;;5067306;28;20624;-88
2021/01/24 02:24:15;;;;;;;1.60;1.50;;;3.50;99.90;;;;;;5071265;28;20624;-91
2021/01/24 02:26:49;;;;;;;1.10;1.10;;;3.40;99.90;;;;;;5063915;28;20609;-92
2021/01/24 02:29:22;;;;;;;0.90;0.90;;;3.30;99.90;;;;;;5075382;28;20638;-91
2021/01/24 02:31:52;;;;;;;1.07;0.97;;;3.20;99.90;;;;;;5066553;28;20656;-92
2021/01/24 02:34:22;;;;;;;1.30;1.23;;;3.20;99.90;;;;;;5069923;28;21247;-91
2021/01/24 02:36:50;;;;;;;1.10;0.70;;;3.20;99.90;;;;;;5073185;28;21003;-92
2021/01/24 02:39:19;;;;;;;0.60;0.60;;;3.20;99.90;;;;;;5069847;28;20683;-90
2021/01/24 02:41:45;;;;;;;0.63;0.63;;;3.20;99.90;;;;;;5066396;28;20641;-90
2021/01/24 02:44:13;;;;;;;0.70;0.70;;;3.20;99.90;;;;;;5067612;28;20721;-90
2021/01/24 02:46:40;;;;;;;0.70;0.70;;;3.30;99.90;;;;;;5069032;28;20642;-90
2021/01/24 02:49:08;;;;;;;0.70;0.60;;;3.30;99.90;;;;;;5065837;28;20628;-89
2021/01/24 02:51:35;;;;;;;0.43;0.43;;;3.30;99.90;;;;;;5064507;28;20669;-88
2021/01/24 02:54:03;;;;;;;0.50;0.50;;;3.30;99.90;;;;;;5061688;28;20636;-92
2021/01/24 02:56:29;;;;;;;0.60;0.60;;;3.30;99.90;;;;;;5064545;28;20637;-88
2021/01/24 02:58:57;;;;;;;0.60;0.60;;;3.30;99.90;;;;;;5070074;28;21271;-90
2021/01/24 03:01:23;;;;;;;1.33;0.60;;;3.10;99.90;;;;;;5066382;28;20657;-93
2021/01/24 03:03:50;;;;;;;1.07;0.97;;;3.10;99.90;;;;;;5068826;28;20649;-91
2021/01/24 03:06:25;;;;;;;0.50;0.50;;;3.10;99.90;;;;;;5071872;28;20726;-91
2021/01/24 03:08:51;;;;;;;0.77;0.70;;;3.00;99.90;;;;;;5069653;28;20629;-93
2021/01/24 03:11:20;;;;;;;0.73;0.57;;;3.00;99.90;;;;;;5078805;28;20683;-91
2021/01/24 03:13:52;;;;;;;0.60;0.60;;;3.00;99.90;;;;;;5065852;28;20609;-92
2021/01/24 03:16:19;;;;;;;0.70;0.70;;;2.90;99.90;;;;;;5076752;28;20649;-92
2021/01/24 03:18:46;;;;;;;0.83;0.83;;;2.90;99.90;;;;;;5073080;28;21074;-90
2021/01/24 03:21:15;;;;;;;0.93;0.80;;;2.90;99.90;;;;;;5069841;28;20645;-91
2021/01/24 03:23:43;;;;;;;0.80;0.80;;;3.20;99.90;;;;;;5069626;28;20610;-90
2021/01/24 03:26:12;;;;;;;1.07;1.07;;;3.00;99.90;;;;;;5079316;28;20969;-89
2021/01/24 03:28:38;;;;;;;1.23;1.13;;;3.10;99.90;;;;;;5084954;28;20633;-89
2021/01/24 03:31:06;;;;;;;1.17;1.07;;;3.00;99.90;;;;;;5086524;28;20657;-90
2021/01/24 03:33:33;;;;;;;1.40;1.30;;;3.00;99.90;;;;;;5066096;28;20648;-90
2021/01/24 03:36:03;;;;;;;1.53;1.43;;;2.70;99.90;;;;;;5071936;28;20967;-91
2021/01/24 03:38:29;;;;;;;1.60;1.50;;;2.60;99.90;;;;;;5068393;28;20636;-89
2021/01/24 03:40:57;;;;;;;1.70;1.60;;;2.40;99.90;;;;;;5066127;28;20652;-89
2021/01/24 03:43:23;;;;;;;1.80;1.70;;;2.50;99.90;;;;;;5078392;28;20732;-90
2021/01/24 03:45:49;;;;;;;2.30;2.20;;;2.50;99.90;;;;;;5067469;28;20659;-91
2021/01/24 03:48:16;;;;;;;1.73;1.63;;;2.40;99.90;;;;;;5070169;28;20625;-88
2021/01/24 03:50:42;;;;;;;2.03;1.93;;;2.50;99.90;;;;;;5062265;28;20669;-89
2021/01/24 03:53:08;;;;;;;2.53;2.33;;;2.40;99.90;;;;;;5065845;28;20706;-89
2021/01/24 03:55:35;;;;;;;2.13;1.90;;;2.40;99.90;;;;;;5065187;28;20637;-88
2021/01/24 03:58:02;;;;;;;2.20;2.00;;;2.40;99.90;;;;;;5064308;28;20633;-88
2021/01/24 04:00:28;;;;;;;2.40;2.30;;;2.40;99.90;;;;;;5063328;28;20670;-88
2021/01/24 04:02:55;;;;;;;2.57;2.37;;;2.40;99.90;;;;;;5067272;28;20645;-88
2021/01/24 04:05:21;;;;;;;2.80;2.60;;;2.40;99.90;;;;;;5067818;28;20652;-89
2021/01/24 04:07:47;;;;;;;2.07;1.97;;;2.40;99.90;;;;;;5062577;28;20638;-89
2021/01/24 04:10:14;;;;;;;2.73;2.53;;;2.40;99.90;;;;;;5054089;28;20677;-89
2021/01/24 04:12:41;;;;;;;2.30;2.20;;;2.50;99.90;;;;;;5067541;28;20641;-88
2021/01/24 04:15:10;;;;;;;2.70;2.50;;;2.50;99.90;;;;;;5063637;28;20630;-88
2021/01/24 04:17:36;;;;;;;2.83;2.60;;;2.50;99.90;;;;;;5061985;28;20647;-89
2021/01/24 04:20:05;;;;;;;2.67;2.27;;;2.60;99.90;;;;;;5064461;28;21030;-89
2021/01/24 04:22:32;;;;;;;2.57;2.33;;;2.60;99.90;;;;;;5061252;28;20640;-90
2021/01/24 04:24:59;;;;;;;4.83;2.90;;;2.60;99.90;;;;;;5061399;28;21038;-90
2021/01/24 04:27:26;;;;;;;2.80;2.60;;;2.60;99.90;;;;;;5064582;28;20641;-89
2021/01/24 04:29:54;;;;;;;2.50;2.30;;;2.70;99.90;;;;;;5065388;28;20675;-90
2021/01/24 04:32:21;;;;;;;2.50;2.30;;;2.70;99.90;;;;;;5059646;28;20965;-89
2021/01/24 04:34:47;;;;;;;2.90;2.50;;;2.50;99.90;;;;;;5062852;28;20955;-89
2021/01/24 04:37:14;;;;;;;3.33;2.40;;;2.50;99.90;;;;;;5067430;28;20712;-88
2021/01/24 04:39:40;;;;;;;2.90;2.53;;;2.50;99.90;;;;;;5060380;28;20653;-89
2021/01/24 04:42:07;;;;;;;2.70;2.50;;;2.30;99.90;;;;;;5061201;28;21405;-91
2021/01/24 04:44:36;;;;;;;2.93;2.73;;;2.20;99.90;;;;;;5060731;28;20629;-91
2021/01/24 04:47:03;;;;;;;2.77;2.57;;;2.30;99.90;;;;;;5073394;28;20647;-89
2021/01/24 04:49:30;;;;;;;2.60;2.40;;;2.20;99.90;;;;;;5054323;28;20667;-87
2021/01/24 04:51:59;;;;;;;2.10;2.00;;;2.20;99.90;;;;;;5058268;28;20714;-87
2021/01/24 04:54:27;;;;;;;2.60;2.40;;;2.20;99.90;;;;;;5063995;28;20632;-90
2021/01/24 04:56:54;;;;;;;2.27;2.17;;;2.20;99.90;;;;;;5072977;28;20644;-90
2021/01/24 04:59:21;;;;;;;2.27;2.07;;;2.10;99.90;;;;;;5057355;28;21065;-88
2021/01/24 05:01:48;;;;;;;3.63;2.60;;;2.10;99.90;;;;;;5065065;28;20645;-88
2021/01/24 05:04:15;;;;;;;2.43;2.20;;;2.10;99.90;;;;;;5060343;28;20613;-89
2021/01/24 05:06:43;;;;;;;2.87;2.53;;;2.00;99.90;;;;;;5057990;28;20624;-89
2021/01/24 05:09:10;;;;;;;2.57;2.37;;;2.10;99.90;;;;;;5038247;28;20679;-88
2021/01/24 05:11:37;;;;;;;3.03;2.83;;;2.10;99.90;;;;;;5061590;28;20669;-90
2021/01/24 05:14:15;;;;;;;3.33;2.27;;;2.10;99.90;;;;;;5066354;28;20693;-90
2021/01/24 05:16:49;;;;;;;3.53;2.40;;;2.10;99.90;;;;;;5061905;28;21275;-90
2021/01/24 05:19:15;;;;;;;3.30;2.30;;;2.10;99.90;;;;;;5062369;28;21174;-89
2021/01/24 05:21:43;;;;;;;2.50;2.30;;;2.10;99.90;;;;;;5066541;28;20629;-88
2021/01/24 05:24:13;;;;;;;3.80;2.30;;;2.10;99.90;;;;;;5062618;28;20970;-90
2021/01/24 05:26:42;;;;;;;2.80;2.60;;;2.10;99.90;;;;;;5060745;28;21189;-91
2021/01/24 05:29:19;;;;;;;3.00;2.27;;;2.10;99.90;;;;;;5061584;28;20601;-88
2021/01/24 05:31:46;;;;;;;3.27;2.67;;;2.00;99.90;;;;;;5059382;28;20626;-89
2021/01/24 05:34:15;;;;;;;2.80;2.50;;;2.10;99.90;;;;;;5062082;28;20632;-90
2021/01/24 05:36:44;;;;;;;2.87;2.67;;;2.00;99.90;;;;;;5063399;28;21006;-89
2021/01/24 05:39:10;;;;;;;3.30;3.07;;;1.90;99.90;;;;;;5070582;28;20839;-88
2021/01/24 05:41:39;;;;;;;3.53;2.70;;;1.90;99.90;;;;;;5072038;28;20676;-91
2021/01/24 05:44:12;;;;;;;4.70;3.17;;;1.80;99.90;;;;;;5070870;28;20647;-91
2021/01/24 05:46:38;;;;;;;3.50;3.13;;;1.80;99.90;;;;;;5070092;28;20629;-91
2021/01/24 05:49:06;;;;;;;2.80;2.60;;;1.80;99.90;;;;;;5068006;28;20635;-91
2021/01/24 05:51:32;;;;;;;4.20;2.80;;;1.80;99.90;;;;;;5090074;28;20680;-91
2021/01/24 05:53:59;;;;;;;3.30;3.00;;;1.70;99.90;;;;;;5073349;28;20642;-90
2021/01/24 05:56:27;;;;;;;5.40;3.37;;;1.70;99.90;;;;;;5083799;28;20627;-90
2021/01/24 05:58:55;;;;;;;3.63;3.33;;;1.70;99.90;;;;;;5099246;28;20627;-90
2021/01/24 06:01:22;;;;;;;3.00;2.70;;;1.60;99.90;;;;;;5091264;28;20621;-89
2021/01/24 06:03:49;;;;;;;3.10;2.90;;;1.60;99.90;;;;;;5091604;28;20608;-89
2021/01/24 06:06:16;;;;;;;3.50;3.20;;;1.60;99.90;;;;;;5087406;28;20630;-89
2021/01/24 06:08:42;;;;;;;3.40;3.10;;;1.60;99.90;;;;;;5090934;28;20763;-89
2021/01/24 06:11:10;;;;;;;3.80;3.50;;;1.60;99.90;;;;;;5092867;28;20665;-89
2021/01/24 06:13:40;;;;;;;4.37;3.97;;;1.60;99.90;;;;;;5091168;28;20725;-90
2021/01/24 06:16:09;;;;;;;3.53;3.00;;;1.60;99.90;;;;;;5081012;28;20638;-89
2021/01/24 06:18:45;;;;;;;6.37;3.40;;;1.60;99.90;;;;;;5075443;28;20655;-92
2021/01/24 06:21:19;;;;;;;6.83;4.17;;;1.60;99.90;;;;;;5070127;28;21047;-89
2021/01/24 06:23:51;;;;;;;4.80;3.00;;;1.60;99.90;;;;;;5070693;28;20623;-90
2021/01/24 06:26:20;;;;;;;3.97;3.67;;;1.50;99.90;;;;;;5070634;28;20611;-89
2021/01/24 06:28:49;;;;;;;4.33;3.70;;;1.50;99.90;;;;;;5067418;28;20640;-90
2021/01/24 06:31:17;;;;;;;4.40;4.00;;;1.50;99.90;;;;;;5070409;28;20661;-90
2021/01/24 06:33:44;;;;;;;3.87;3.50;;;1.50;99.90;;;;;;5067818;28;20617;-89
2021/01/24 06:36:12;;;;;;;4.33;3.90;;;1.50;99.90;;;;;;5074894;28;20747;-90
2021/01/24 06:38:40;;;;;;;3.63;3.33;;;1.40;99.90;;;;;;5064594;28;20981;-89
2021/01/24 06:41:08;;;;;;;4.00;3.60;;;1.40;99.90;;;;;;5066510;28;20661;-89
2021/01/24 06:43:41;;;;;;;3.67;3.37;;;1.50;99.90;;;;;;5060730;28;20633;-89
2021/01/24 06:46:10;;;;;;;4.13;3.83;;;1.50;99.90;;;;;;5067574;28;20714;-89
2021/01/24 06:48:44;;;;;;;4.30;3.97;;;1.50;99.90;;;;;;5073409;28;20666;-89
2021/01/24 06:51:34;;;;;;;4.20;3.80;;;1.40;99.90;;;;;;5079726;28;20672;-90
2021/01/24 06:54:04;;;;;;;4.10;3.70;;;1.30;99.90;;;;;;5067461;28;20621;-89
2021/01/24 06:56:38;;;;;;;5.20;4.77;;;1.30;99.90;;;;;;5062810;28;20618;-89
2021/01/24 06:59:05;;;;;;;4.83;4.37;;;1.30;99.90;;;;;;5071438;28;20733;-90
2021/01/24 07:01:32;;;;;;;4.83;4.43;;;1.30;99.90;;;;;;5066078;28;21069;-90
2021/01/24 07:04:38;;;;;;;4.30;3.90;;;1.30;99.90;;;;;;5073196;28;20637;-89
2021/01/24 07:07:33;;;;;;;3.83;3.53;;;1.30;99.90;;;;;;5067341;28;20633;-89
2021/01/24 07:10:01;;;;;;;4.50;3.83;;;1.20;99.90;;;;;;5070976;28;20652;-90
2021/01/24 07:12:35;;;;;;;3.77;3.30;;;1.30;99.90;;;;;;5058189;28;20677;-89
2021/01/24 07:15:04;;;;;;;3.93;3.50;;;1.30;99.90;;;;;;5069121;28;20685;-90
2021/01/24 07:17:31;;;;;;;4.90;4.23;;;1.40;99.90;;;;;;5068760;28;20640;-91
2021/01/24 07:19:58;;;;;;;4.17;3.77;;;1.40;99.90;;;;;;5072801;28;20652;-93
2021/01/24 07:22:29;;;;;;;6.63;4.47;;;1.40;99.90;;;;;;5072977;28;20645;-90
2021/01/24 07:24:56;;;;;;;4.47;4.07;;;1.40;99.90;;;;;;5073242;28;20663;-91
2021/01/24 07:27:24;;;;;;;4.80;3.40;;;1.40;99.90;;;;;;5068837;28;20675;-91
2021/01/24 07:29:50;;;;;;;4.33;4.03;;;1.40;99.90;;;;;;5069839;28;21342;-89
2021/01/24 07:32:19;;;;;;;4.80;3.50;;;1.40;99.90;;;;;;5076864;28;20692;-90
2021/01/24 07:34:47;;;;;;;5.80;4.00;;;1.40;99.90;;;;;;5073548;28;20643;-90
2021/01/24 07:37:16;;;;;;;4.83;4.27;;;1.50;99.90;;;;;;5065096;28;20787;-90
2021/01/24 07:39:43;;;;;;;3.97;3.57;;;1.50;99.90;;;;;;5069094;28;21037;-90
2021/01/24 07:42:11;;;;;;;4.60;4.20;;;1.50;99.90;;;;;;5060181;28;20640;-89
2021/01/24 07:44:40;;;;;;;4.60;4.20;;;1.40;99.90;;;;;;5072179;28;20720;-90
2021/01/24 07:47:07;;;;;;;4.80;3.93;;;1.40;99.90;;;;;;5070913;28;20743;-89
2021/01/24 07:49:40;;;;;;;4.43;3.73;;;1.40;99.90;;;;;;5066492;28;20610;-89
2021/01/24 07:52:10;;;;;;;4.50;4.10;;;1.40;99.90;;;;;;5066920;28;20681;-88
2021/01/24 07:54:38;;;;;;;6.13;3.87;;;1.40;99.90;;;;;;5068381;28;20618;-89
2021/01/24 07:57:06;;;;;;;4.70;3.90;;;1.60;99.90;;;;;;5071601;28;21011;-91
2021/01/24 07:59:32;;;;;;;3.60;3.30;;;1.40;99.90;;;;;;5070914;28;20637;-90
2021/01/24 08:01:59;;;;;;;5.97;3.90;;;1.40;99.90;;;;;;5064861;28;21223;-91
2021/01/24 08:04:26;;;;;;;4.40;3.70;;;1.50;99.90;;;;;;5065350;28;20644;-88
2021/01/24 08:06:54;;;;;;;5.90;4.20;;;1.50;99.90;;;;;;5074028;28;20644;-91
2021/01/24 08:09:20;;;;;;;4.33;3.93;;;1.70;99.90;;;;;;5065482;28;20671;-89
2021/01/24 08:11:49;;;;;;;4.00;3.60;;;1.90;99.90;;;;;;5070243;28;20675;-88
2021/01/24 08:14:17;;;;;;;4.07;3.77;;;2.00;99.90;;;;;;5064180;28;21192;-89
2021/01/24 08:16:50;;;;;;;3.50;3.20;;;2.10;99.90;;;;;;5061805;28;20691;-89
2021/01/24 08:19:20;;;;;;;3.00;2.80;;;2.20;99.90;;;;;;5035832;28;20610;-90
2021/01/24 08:21:48;;;;;;;3.10;2.90;;;2.40;99.90;;;;;;5063445;28;20625;-90
2021/01/24 08:24:16;;;;;;;3.90;3.60;;;2.40;99.90;;;;;;5058214;28;21066;-89
2021/01/24 08:26:43;;;;;;;4.53;2.93;;;2.40;99.90;;;;;;5066559;28;20644;-89
2021/01/24 08:29:10;;;;;;;4.23;3.30;;;2.30;99.90;;;;;;5070543;28;20616;-88
2021/01/24 08:31:36;;;;;;;4.23;3.70;;;2.20;99.90;;;;;;5061760;28;20664;-89
2021/01/24 08:34:04;;;;;;;3.77;3.43;;;2.30;99.90;;;;;;5064371;28;20642;-90
2021/01/24 08:36:30;;;;;;;4.53;3.80;;;2.40;99.90;;;;;;5061318;28;20732;-90
2021/01/24 08:38:59;;;;;;;4.97;3.70;;;2.40;99.90;;;;;;5070777;28;20629;-90
2021/01/24 08:41:31;;;;;;;7.00;4.47;;;2.10;99.90;;;;;;5066040;28;20621;-92
2021/01/24 08:44:10;;;;;;;3.37;3.13;;;2.40;99.90;;;;;;5067503;28;20669;-93
2021/01/24 08:46:43;;;;;;;3.87;3.47;;;2.60;99.90;;;;;;5082029;28;20784;-93
2021/01/24 08:49:21;;;;;;;4.20;3.40;;;3.00;99.90;;;;;;5076691;28;21159;-94
2021/01/24 08:51:52;;;;;;;3.77;3.40;;;2.80;99.90;;;;;;5071346;28;20667;-94
2021/01/24 08:54:24;;;;;;;5.50;3.20;;;2.70;99.90;;;;;;5067081;28;20997;-90
2021/01/24 08:57:08;;;;;;;3.00;2.80;;;2.70;99.90;;;;;;5060688;28;20634;-90
2021/01/24 08:59:35;;;;;;;3.20;2.90;;;3.10;99.90;;;;;;5058610;28;21184;-92
2021/01/24 09:02:02;;;;;;;3.70;3.40;;;3.20;99.90;;;;;;5058791;28;20622;-92
2021/01/24 09:04:32;;;;;;;4.13;3.50;;;3.30;99.90;;;;;;5061307;28;20964;-91
2021/01/24 09:07:07;;;;;;;4.23;3.10;;;3.20;99.90;;;;;;5060249;28;20661;-91
2021/01/24 09:09:34;;;;;;;3.60;3.30;;;3.10;99.90;;;;;;5065777;28;20628;-91
2021/01/24 09:12:03;;;;;;;3.00;2.77;;;3.10;99.90;;;;;;5078221;28;20658;-91
2021/01/24 09:14:29;;;;;;;3.27;3.07;;;3.00;99.90;;;;;;5098725;28;20627;-90
2021/01/24 09:17:01;;;;;;;2.50;2.30;;;3.00;99.90;;;;;;5072358;28;20665;-91
2021/01/24 09:19:28;;;;;;;5.70;2.50;;;2.80;99.90;;;;;;5070199;28;20618;-91
2021/01/24 09:21:56;;;;;;;3.03;2.77;;;3.00;99.90;;;;;;5065289;28;20784;-90
2021/01/24 09:24:23;;;;;;;4.53;3.40;;;2.70;99.90;;;;;;5069235;28;20743;-90
2021/01/24 09:26:50;;;;;;;3.90;3.10;;;2.80;99.90;;;;;;5067278;28;20657;-90
2021/01/24 09:29:19;;;;;;;2.80;2.60;;;2.90;99.90;;;;;;5070197;28;20641;-89
2021/01/24 09:31:45;;;;;;;3.30;3.00;;;2.80;99.90;;;;;;5072266;28;20669;-88
2021/01/24 09:34:12;;;;;;;3.40;2.97;;;2.80;99.90;;;;;;5069110;28;20625;-91
2021/01/24 09:36:38;;;;;;;3.10;2.80;;;3.00;99.90;;;;;;5065321;28;20665;-89
2021/01/24 09:39:07;;;;;;;3.50;3.07;;;3.10;99.90;;;;;;5064171;28;21048;-89
2021/01/24 09:41:34;;;;;;;4.53;3.60;;;3.00;99.90;;;;;;5061961;28;20626;-91
2021/01/24 09:44:03;;;;;;;4.73;3.73;;;3.10;99.90;;;;;;5083709;28;20610;-90
2021/01/24 09:46:37;;;;;;;4.87;3.60;;;3.00;99.90;;;;;;5072163;28;20696;-92
2021/01/24 09:49:14;;;;;;;8.20;3.67;;;2.90;99.90;;;;;;5092275;28;20649;-91
2021/01/24 09:51:41;;;;;;;4.47;3.43;;;2.90;99.90;;;;;;5084405;28;21013;-91
2021/01/24 09:54:08;;;;;;;6.37;3.93;;;2.70;99.90;;;;;;5084815;28;20656;-89
2021/01/24 09:56:34;;;;;;;4.87;4.47;;;2.80;99.90;;;;;;5081770;28;20678;-89
2021/01/24 09:59:01;;;;;;;3.87;2.90;;;2.90;99.90;;;;;;5082013;28;20633;-89
2021/01/24 10:01:27;;;;;;;4.60;4.13;;;2.70;99.90;;;;;;5077880;28;21574;-89
2021/01/24 10:03:55;;;;;;;6.20;3.60;;;2.60;99.90;;;;;;5085978;28;20628;-89
2021/01/24 10:06:21;;;;;;;4.17;3.63;;;3.00;99.90;;;;;;5090556;28;20656;-88
2021/01/24 10:08:48;;;;;;;5.87;3.87;;;2.80;99.90;;;;;;5084541;28;20606;-90
2021/01/24 10:11:16;;;;;;;3.70;3.37;;;2.90;99.90;;;;;;5084367;28;20672;-90
2021/01/24 10:13:42;;;;;;;3.60;3.30;;;2.90;99.90;;;;;;5087362;28;20673;-90
2021/01/24 10:16:12;;;;;;;3.43;3.13;;;3.30;99.90;;;;;;5083698;28;20655;-89
2021/01/24 10:18:38;;;;;;;2.90;2.70;;;3.50;99.90;;;;;;5073371;28;20968;-90
2021/01/24 10:21:08;;;;;;;3.37;2.83;;;3.40;99.90;;;;;;5062981;28;20637;-87
2021/01/24 10:23:35;;;;;;;4.43;2.70;;;3.50;99.90;;;;;;5066692;28;20638;-89
2021/01/24 10:26:01;;;;;;;4.50;3.57;;;3.50;99.90;;;;;;5071684;28;20655;-89
2021/01/24 10:28:28;;;;;;;3.37;2.70;;;3.60;99.90;;;;;;5077803;28;20663;-90
2021/01/24 10:30:55;;;;;;;2.63;2.43;;;3.70;99.90;;;;;;5082473;28;20631;-90
2021/01/24 10:33:22;;;;;;;3.03;2.70;;;3.50;99.90;;;;;;5081877;28;20644;-90
2021/01/24 10:35:49;;;;;;;3.03;2.43;;;3.40;99.90;;;;;;5083164;28;20697;-89
2021/01/24 10:38:17;;;;;;;4.93;3.10;;;3.40;99.90;;;;;;5084223;28;20690;-89
2021/01/24 10:40:44;;;;;;;3.17;2.47;;;3.50;99.90;;;;;;5086190;28;20605;-89
2021/01/24 10:43:11;;;;;;;3.63;2.80;;;3.40;99.90;;;;;;5085698;28;20619;-87
2021/01/24 10:45:39;;;;;;;2.93;2.60;;;3.30;99.90;;;;;;5074747;28;20679;-89
2021/01/24 10:48:08;;;;;;;2.57;2.37;;;3.40;99.90;;;;;;5073562;28;20693;-89
2021/01/24 10:50:36;;;;;;;3.00;2.20;;;3.60;99.90;;;;;;5073198;28;20668;-89
2021/01/24 10:53:03;;;;;;;3.70;2.40;;;3.70;99.90;;;;;;5076582;28;20634;-89
2021/01/24 10:55:32;;;;;;;2.70;2.20;;;3.90;99.90;;;;;;5069029;28;21427;-90
2021/01/24 10:58:00;;;;;;;2.17;1.97;;;4.10;99.90;;;;;;5067817;28;20635;-90
2021/01/24 11:00:28;;;;;;;2.43;2.23;;;4.30;99.90;;;;;;5068819;28;20629;-91
2021/01/24 11:02:55;;;;;;;2.63;2.17;;;4.50;99.40;;;;;;5065531;28;20640;-88
2021/01/24 11:05:22;;;;;;;2.90;2.17;;;4.50;99.50;;;;;;5064130;28;20967;-90
2021/01/24 11:07:49;;;;;;;1.83;1.60;;;4.50;98.80;;;;;;5063769;28;21087;-89
2021/01/24 11:10:15;;;;;;;2.40;2.20;;;4.80;98.00;;;;;;5061977;28;20585;-89
2021/01/24 11:12:45;;;;;;;3.60;2.63;;;4.80;97.80;;;;;;5065295;28;20760;-89
2021/01/24 11:15:12;;;;;;;2.40;2.17;;;4.90;97.30;;;;;;5065898;28;20673;-88
2021/01/24 11:17:46;;;;;;;2.57;2.20;;;5.20;97.00;;;;;;5083974;28;20608;-89
2021/01/24 11:20:14;;;;;;;2.73;2.23;;;5.40;96.70;;;;;;5068596;28;20621;-90
2021/01/24 11:22:40;;;;;;;2.13;2.03;;;5.60;96.20;;;;;;5065898;28;20621;-89
2021/01/24 11:25:10;;;;;;;2.20;1.53;;;5.70;95.20;;;;;;5066200;28;21050;-87
2021/01/24 11:27:37;;;;;;;1.50;1.40;;;5.20;95.80;;;;;;5068383;28;20589;-88
2021/01/24 11:30:08;;;;;;;1.87;1.77;;;4.70;95.70;;;;;;5058668;28;20582;-89
2021/01/24 11:32:35;;;;;;;1.73;1.63;;;4.50;96.20;;;;;;5063436;28;20691;-89
2021/01/24 11:35:04;;;;;;;3.43;1.90;;;4.30;96.50;;;;;;5062172;28;20641;-90
2021/01/24 11:37:30;;;;;;;2.23;1.67;;;4.00;96.40;;;;;;5066679;28;21179;-88
2021/01/24 11:39:56;;;;;;;2.70;2.00;;;3.90;97.00;;;;;;5067560;28;20610;-89
2021/01/24 11:42:24;;;;;;;2.00;1.70;;;4.00;97.40;;;;;;5058881;28;20803;-89
2021/01/24 11:44:51;;;;;;;1.60;1.40;;;3.90;97.60;;;;;;5066551;28;20971;-89
2021/01/24 11:47:19;;;;;;;2.73;1.87;;;4.00;97.70;;;;;;5058590;28;20719;-91
2021/01/24 11:49:47;;;;;;;2.17;1.90;;;3.90;96.90;;;;;;5068812;28;21273;-89
2021/01/24 11:52:14;;;;;;;2.13;1.90;;;3.90;98.20;;;;;;5065514;28;20665;-89
2021/01/24 11:54:40;;;;;;;1.60;1.43;;;4.00;97.50;;;;;;5066396;28;20727;-89
2021/01/24 11:57:07;;;;;;;2.00;1.87;;;4.00;97.70;;;;;;5060820;28;20654;-89
2021/01/24 11:59:33;;;;;;;1.70;1.50;;;4.20;97.70;;;;;;5057969;28;20640;-89
2021/01/24 12:02:00;;;;;;;1.87;1.67;;;4.00;97.50;;;;;;5058673;28;20617;-88
2021/01/24 12:04:27;;;;;;;4.73;1.90;;;4.10;97.70;;;;;;5056937;28;20596;-90
2021/01/24 12:06:53;;;;;;;1.80;1.70;;;4.20;97.80;;;;;;5065204;28;20653;-89
2021/01/24 12:09:20;;;;;;;1.60;1.50;;;4.20;97.50;;;;;;5057263;28;20702;-89
2021/01/24 12:11:46;;;;;;;3.23;1.70;;;4.00;97.20;;;;;;5065255;28;20664;-89
2021/01/24 12:14:13;;;;;;;2.40;1.90;;;4.10;97.70;;;;;;5062486;28;20625;-89
2021/01/24 12:16:40;;;;;;;4.73;2.43;;;4.20;97.80;;;;;;5064865;28;20672;-90
2021/01/24 12:19:06;;;;;;;3.20;2.03;;;4.30;97.20;;;;;;5062114;28;21037;-89
2021/01/24 12:21:36;;;;;;;3.63;2.77;;;4.50;96.60;;;;;;5066917;28;20636;-89
2021/01/24 12:24:04;;;;;;;3.97;3.60;;;4.50;97.40;;;;;;5065268;28;21217;-91
2021/01/24 12:26:30;;;;;;;2.10;1.90;;;4.20;97.00;;;;;;5065078;28;20819;-89
2021/01/24 12:28:57;;;;;;;2.17;1.73;;;4.10;97.50;;;;;;5070613;28;20671;-91
2021/01/24 12:31:24;;;;;;;3.73;2.07;;;4.10;97.30;;;;;;5072679;28;20698;-89
2021/01/24 12:33:52;;;;;;;4.93;1.83;;;4.40;97.00;;;;;;5081589;28;20623;-92
2021/01/24 12:36:19;;;;;;;1.93;1.37;;;4.50;97.30;;;;;;5070667;28;21286;-92
2021/01/24 12:38:56;;;;;;;1.50;1.20;;;4.60;97.00;;;;;;5066586;28;20629;-92
2021/01/24 12:41:23;;;;;;;1.50;1.40;;;5.00;95.60;;;;;;5066696;28;20621;-92
2021/01/24 12:43:49;;;;;;;2.30;1.93;;;5.10;96.30;;;;;;5064496;28;20632;-90
2021/01/24 12:46:15;;;;;;;2.03;1.60;;;4.90;95.60;;;;;;5064073;28;20698;-93
2021/01/24 12:48:42;;;;;;;1.83;1.60;;;4.80;96.40;;;;;;5065154;28;20963;-91
2021/01/24 12:51:08;;;;;;;1.77;1.63;;;5.00;96.20;;;;;;5071530;28;20664;-92
2021/01/24 12:53:34;;;;;;;1.87;1.77;;;4.70;96.10;;;;;;5068698;28;21124;-91
2021/01/24 12:56:02;;;;;;;1.60;1.50;;;5.20;95.70;;;;;;5060689;28;20720;-89
2021/01/24 12:58:31;;;;;;;2.50;2.17;;;4.90;96.10;;;;;;5072094;28;20632;-91
2021/01/24 13:00:58;;;;;;;2.77;1.90;;;4.90;95.80;;;;;;5065532;28;20639;-91
2021/01/24 13:03:24;;;;;;;2.63;1.67;;;4.50;96.70;;;;;;5074527;28;20647;-92